Curran, Michigan
Current Conditions -  °F | °C
As of 11:54 PM on Friday 28 Nov 2014 (Local Time) from KAPN Reporting Station
Overcast Overcast  
Wind Chill: 15°   Ceiling: 5000
Heat Index: 23°   Visibility: 10mi
Dew Point: 21°   Wind: 7mph
Humidity: 92%   Direction: 160°SSE
Pressure: 30.03"   Gusts: NA
Location:  44.71°N, 83.81°W
Report Text: KAPN 290454Z AUTO 16006KT 10SM FEW014 OVC050 M05/M06 A3003 RMK AO2 SLP180 T10501061 410501100
Loading
Personal Weather Stations






























Interactive Weather Map New forecast layout! Learn more

10-Day Weather Forecast

Advertisements
Track Severe Weather on mobile